Terminal Aerodrome Forecast
Issued by NWS

Home | Current Version | Previous Version | Text Only | Print | Product List | Glossary Off
Versions: 1 2 3 4 5 6 7 8 9 10 11 12 13 14 15 16 17 18

000
FTUS43 KGRB 201122
TAFCWA
TAF
KCWA 201122Z 2012/2112 19007KT P6SM SKC
     FM201600 20010G16KT P6SM SKC
     FM201800 19011G17KT P6SM SKC WS020/23040KT
     FM202300 17008KT P6SM SCT250 WS020/21045KT
     FM210900 17008KT P6SM BKN100 WS020/22045KT=

USA.gov is the U.S. government's official web portal to all federal, state and local government web resources and services.